Time;durP1;ratioP1;P1;durP2;ratioP2;P2;SDS_P1;SDS_P2;PMS_P1;PMS_P2;Temp;Humidity;BMP_temperature;BMP_pressure;BME280_temperature;BME280_humidity;BME280_pressure;Samples;Min_cycle;Max_cycle;Signal;HPM_P1;HPM_P2
2023/10/04 00:00:22;;;;;;;8.53;2.57;;;;;;;10.63;100.00;101500.00;7373423;19;20479;-46
2023/10/04 00:02:53;;;;;;;8.70;2.53;;;;;;;10.63;100.00;101520.66;7398474;19;20412;-46
2023/10/04 00:05:24;;;;;;;12.70;2.70;;;;;;;10.68;100.00;101554.44;7373530;19;20427;-50
2023/10/04 00:07:57;;;;;;;16.77;3.40;;;;;;;10.69;100.00;101576.84;7397193;19;20760;-46
2023/10/04 00:10:29;;;;;;;8.57;2.53;;;;;;;10.63;100.00;101584.25;7372779;19;20526;-45
2023/10/04 00:12:59;;;;;;;8.13;1.90;;;;;;;10.62;100.00;101596.25;7395514;19;20411;-50
2023/10/04 00:15:31;;;;;;;12.77;2.27;;;;;;;10.63;100.00;101597.16;7371010;19;20435;-49
2023/10/04 00:18:02;;;;;;;6.87;2.07;;;;;;;10.61;100.00;101617.72;7396743;19;20416;-49
2023/10/04 00:20:34;;;;;;;8.90;2.27;;;;;;;10.62;100.00;101631.53;7370730;19;20471;-47
2023/10/04 00:23:05;;;;;;;15.13;2.73;;;;;;;10.65;100.00;101635.16;7395391;19;20933;-45
2023/10/04 00:25:38;;;;;;;8.90;3.70;;;;;;;10.69;100.00;101648.22;7372090;19;20426;-45
2023/10/04 00:28:08;;;;;;;5.07;1.63;;;;;;;10.71;100.00;101647.50;7395529;19;20479;-50
2023/10/04 00:30:38;;;;;;;8.37;2.00;;;;;;;10.66;100.00;101655.00;7370982;19;20542;-45
2023/10/04 00:33:08;;;;;;;11.50;2.50;;;;;;;10.70;100.00;101660.31;7395698;19;20408;-46
2023/10/04 00:35:40;;;;;;;8.77;2.03;;;;;;;10.73;100.00;101660.50;7371891;19;20427;-46
2023/10/04 00:38:13;;;;;;;7.60;2.10;;;;;;;10.72;100.00;101667.34;7397429;19;20410;-50
2023/10/04 00:40:47;;;;;;;6.00;2.07;;;;;;;10.71;100.00;101672.44;7371911;19;20476;-46
2023/10/04 00:43:19;;;;;;;11.83;1.67;;;;;;;10.73;100.00;101681.16;7395294;19;20411;-46
2023/10/04 00:45:50;;;;;;;13.93;2.40;;;;;;;10.74;100.00;101678.66;7372403;19;20435;-46
2023/10/04 00:48:23;;;;;;;11.53;2.73;;;;;;;10.73;100.00;101691.47;7395291;19;20435;-45
2023/10/04 00:50:54;;;;;;;6.30;2.00;;;;;;;10.75;100.00;101690.75;7371113;19;20459;-47
2023/10/04 00:53:26;;;;;;;6.33;1.80;;;;;;;10.79;100.00;101697.88;7394719;19;20415;-45
2023/10/04 00:55:59;;;;;;;13.83;2.13;;;;;;;10.86;100.00;101700.81;7371926;19;20434;-45
2023/10/04 00:58:29;;;;;;;8.00;1.87;;;;;;;10.84;100.00;101718.78;7397334;19;20497;-47
2023/10/04 01:00:58;;;;;;;7.07;1.80;;;;;;;10.78;100.00;101719.31;7370638;19;20458;-48
2023/10/04 01:03:32;;;;;;;11.50;2.10;;;;;;;10.75;100.00;101718.25;7394853;19;20417;-47
2023/10/04 01:06:03;;;;;;;11.17;2.27;;;;;;;10.74;100.00;101731.97;7371649;19;21010;-50
2023/10/04 01:08:35;;;;;;;5.30;1.97;;;;;;;10.77;100.00;101719.25;7393839;19;20771;-46
2023/10/04 01:11:07;;;;;;;7.13;1.93;;;;;;;10.70;100.00;101727.41;7371681;19;20455;-46
2023/10/04 01:13:38;;;;;;;14.30;2.20;;;;;;;10.72;100.00;101731.88;7392508;19;20408;-44
2023/10/04 01:16:09;;;;;;;14.13;2.23;;;;;;;10.71;100.00;101718.91;7371900;19;20518;-47
2023/10/04 01:18:40;;;;;;;11.30;1.90;;;;;;;10.64;100.00;101728.88;7394537;19;20432;-45
2023/10/04 01:21:10;;;;;;;13.30;2.60;;;;;;;10.68;100.00;101729.94;7369626;19;20491;-46
2023/10/04 01:23:45;;;;;;;8.20;2.67;;;;;;;10.64;100.00;101722.81;7395551;19;20403;-46
2023/10/04 01:26:25;;;;;;;5.67;1.87;;;;;;;10.62;100.00;101721.84;7372924;19;20854;-46
2023/10/04 01:28:55;;;;;;;7.83;1.63;;;;;;;10.69;100.00;101720.47;7372950;19;20428;-45
2023/10/04 01:31:25;;;;;;;5.63;1.73;;;;;;;10.64;100.00;101728.88;7392838;19;21094;-47
2023/10/04 01:33:55;;;;;;;8.83;2.17;;;;;;;10.64;100.00;101728.88;7370915;19;20471;-45
2023/10/04 01:36:25;;;;;;;6.80;2.10;;;;;;;10.65;100.00;101719.41;7392600;19;20404;-45
2023/10/04 01:38:57;;;;;;;15.97;2.23;;;;;;;10.64;100.00;101718.56;7370969;19;20399;-47
2023/10/04 01:41:28;;;;;;;5.63;1.83;;;;;;;10.69;100.00;101705.91;7392912;19;21009;-47
2023/10/04 01:44:01;;;;;;;13.03;1.80;;;;;;;10.66;100.00;101716.94;7371728;19;20407;-46
2023/10/04 01:46:30;;;;;;;6.90;1.77;;;;;;;10.68;100.00;101717.03;7391035;19;20415;-49
2023/10/04 01:49:00;;;;;;;5.57;1.80;;;;;;;10.69;100.00;101710.16;7369603;19;20431;-46
2023/10/04 01:51:30;;;;;;;14.03;2.20;;;;;;;10.73;100.00;101722.44;7390163;19;20439;-46
2023/10/04 01:54:03;;;;;;;8.93;2.80;;;;;;;10.67;100.00;101726.44;7366071;19;20441;-46
2023/10/04 01:56:33;;;;;;;8.67;2.80;;;;;;;10.77;100.00;101716.66;7391186;19;20399;-46
2023/10/04 01:59:02;;;;;;;8.83;2.43;;;;;;;10.74;100.00;101712.22;7372792;19;20417;-47
2023/10/04 02:01:33;;;;;;;11.13;2.40;;;;;;;10.74;100.00;101714.78;7391227;19;20455;-46
2023/10/04 02:04:05;;;;;;;6.93;2.03;;;;;;;10.74;100.00;101716.47;7370411;19;20419;-45
2023/10/04 02:06:36;;;;;;;7.27;2.60;;;;;;;10.77;100.00;101714.09;7392579;19;20924;-44
2023/10/04 02:09:11;;;;;;;14.70;2.13;;;;;;;10.77;100.00;101719.25;7370158;19;21034;-48
2023/10/04 02:11:42;;;;;;;12.77;2.20;;;;;;;10.80;100.00;101715.13;7391429;19;20733;-46
2023/10/04 02:14:11;;;;;;;10.90;2.20;;;;;;;10.80;100.00;101720.31;7368988;19;20779;-51
2023/10/04 02:16:41;;;;;;;12.63;2.87;;;;;;;10.86;100.00;101719.75;7392900;19;20395;-46
2023/10/04 02:19:12;;;;;;;10.90;3.40;;;;;;;10.87;100.00;101718.06;7371555;19;20397;-48
2023/10/04 02:21:41;;;;;;;9.77;2.00;;;;;;;10.84;100.00;101716.19;7392932;19;20919;-47
2023/10/04 02:24:14;;;;;;;11.53;2.97;;;;;;;10.84;100.00;101716.19;7371543;19;20395;-46
2023/10/04 02:26:43;;;;;;;14.57;3.03;;;;;;;10.86;100.00;101724.03;7392890;19;21007;-49
2023/10/04 02:29:13;;;;;;;6.80;2.47;;;;;;;10.82;100.00;101732.41;7371571;19;20515;-50
2023/10/04 02:31:44;;;;;;;8.63;2.30;;;;;;;10.84;100.00;101736.84;7391106;19;20419;-51
2023/10/04 02:34:19;;;;;;;13.60;2.93;;;;;;;10.87;100.00;101734.44;7372151;19;20387;-52
2023/10/04 02:36:48;;;;;;;11.67;2.77;;;;;;;10.83;100.00;101745.41;7399700;19;20810;-45
2023/10/04 02:39:23;;;;;;;8.60;3.13;;;;;;;10.80;100.00;101751.28;7379439;19;20421;-46
2023/10/04 02:41:53;;;;;;;6.50;2.30;;;;;;;10.79;100.00;101757.25;7398060;19;20415;-46
2023/10/04 02:44:23;;;;;;;7.80;2.30;;;;;;;10.80;100.00;101752.97;7378274;19;20491;-50
2023/10/04 02:46:53;;;;;;;9.70;2.27;;;;;;;10.80;100.00;101764.19;7397574;19;20416;-49
2023/10/04 02:49:23;;;;;;;9.50;2.20;;;;;;;10.82;100.00;101764.25;7378585;19;20433;-46
2023/10/04 02:51:54;;;;;;;6.10;2.33;;;;;;;10.83;100.00;101760.91;7399772;19;20925;-47
2023/10/04 02:54:31;;;;;;;15.63;2.33;;;;;;;10.83;100.00;101757.41;7378812;19;20395;-48
2023/10/04 02:57:07;;;;;;;7.40;2.20;;;;;;;10.81;100.00;101752.16;7397753;19;20403;-48
2023/10/04 02:59:38;;;;;;;6.67;2.00;;;;;;;10.81;100.00;101754.72;7374225;19;20459;-47
2023/10/04 03:02:07;;;;;;;8.83;2.13;;;;;;;10.79;100.00;101746.03;7400458;19;20414;-48
2023/10/04 03:04:38;;;;;;;7.90;1.63;;;;;;;10.82;100.00;101753.94;7374545;19;20455;-46
2023/10/04 03:07:09;;;;;;;7.10;2.00;;;;;;;10.83;100.00;101752.25;7399971;19;20470;-50
2023/10/04 03:09:42;;;;;;;4.63;2.07;;;;;;;10.81;100.00;101752.16;7376366;19;20869;-48
2023/10/04 03:12:15;;;;;;;7.27;2.63;;;;;;;10.81;100.00;101749.56;7397348;19;20411;-50
2023/10/04 03:14:44;;;;;;;15.30;2.30;;;;;;;10.86;100.00;101758.47;7376436;19;20515;-46
2023/10/04 03:17:15;;;;;;;7.80;2.10;;;;;;;10.84;100.00;101761.75;7400298;19;20429;-46
2023/10/04 03:19:47;;;;;;;5.97;1.83;;;;;;;10.88;100.00;101759.44;7374371;19;20542;-47
2023/10/04 03:22:23;;;;;;;15.50;2.80;;;;;;;10.87;100.00;101752.50;7400230;19;20403;-51
2023/10/04 03:24:58;;;;;;;15.67;2.87;;;;;;;10.88;100.00;101759.44;7375027;19;20536;-51
2023/10/04 03:27:27;;;;;;;10.67;2.17;;;;;;;10.86;100.00;101766.22;7400212;19;20403;-49
2023/10/04 03:29:58;;;;;;;17.43;2.87;;;;;;;10.87;100.00;101768.00;7373990;19;20455;-51
2023/10/04 03:32:28;;;;;;;5.40;2.23;;;;;;;10.85;100.00;101769.59;7400245;19;20485;-49
2023/10/04 03:35:00;;;;;;;6.30;2.27;;;;;;;10.86;100.00;101784.28;7376031;19;20421;-50
2023/10/04 03:37:30;;;;;;;9.17;2.47;;;;;;;10.86;100.00;101780.84;7400317;19;20403;-47
2023/10/04 03:40:06;;;;;;;4.13;1.73;;;;;;;10.82;100.00;101777.16;7372375;19;20459;-45
2023/10/04 03:42:36;;;;;;;8.83;2.40;;;;;;;10.85;100.00;101776.44;7398634;19;20556;-51
2023/10/04 03:45:07;;;;;;;9.60;3.17;;;;;;;10.89;100.00;101776.72;7373562;19;20464;-48
2023/10/04 03:47:37;;;;;;;15.43;2.47;;;;;;;10.88;100.00;101790.41;7396063;19;20947;-50
2023/10/04 03:50:11;;;;;;;15.10;2.23;;;;;;;10.89;100.00;101787.06;7375064;19;20459;-53
2023/10/04 03:52:42;;;;;;;9.07;2.33;;;;;;;10.87;100.00;101790.34;7396215;19;20423;-48
2023/10/04 03:55:14;;;;;;;8.23;2.10;;;;;;;10.86;100.00;101797.19;7374542;19;20847;-46
2023/10/04 03:57:44;;;;;;;6.87;2.07;;;;;;;10.87;100.00;101793.81;7398769;19;20427;-49
2023/10/04 04:00:17;;;;;;;9.70;2.00;;;;;;;10.88;100.00;101798.16;7373448;19;20538;-48
2023/10/04 04:02:48;;;;;;;9.03;2.10;;;;;;;10.88;100.00;101799.88;7398557;19;20409;-47
2023/10/04 04:05:21;;;;;;;8.03;2.13;;;;;;;10.87;100.00;101798.97;7375682;19;20423;-49
2023/10/04 04:07:51;;;;;;;14.23;2.97;;;;;;;10.89;100.00;101796.50;7396008;19;20400;-47
2023/10/04 04:10:24;;;;;;;8.57;1.60;;;;;;;10.86;100.00;101812.69;7373240;19;20462;-49
2023/10/04 04:12:55;;;;;;;8.50;2.30;;;;;;;10.85;100.00;101805.75;7396389;19;20403;-51
2023/10/04 04:15:25;;;;;;;8.37;2.60;;;;;;;10.84;100.00;101814.31;7373170;19;20521;-49
2023/10/04 04:17:55;;;;;;;11.20;2.60;;;;;;;10.83;100.00;101822.84;7395929;19;20428;-47
2023/10/04 04:20:26;;;;;;;12.73;2.40;;;;;;;10.81;100.00;101834.75;7373757;19;20466;-51
2023/10/04 04:22:56;;;;;;;9.03;2.10;;;;;;;10.82;100.00;101838.25;7396632;19;20426;-52
2023/10/04 04:25:28;;;;;;;9.10;2.00;;;;;;;10.80;100.00;101832.97;7374477;19;20455;-48
2023/10/04 04:27:59;;;;;;;9.30;2.13;;;;;;;10.82;100.00;101835.66;7396586;19;20403;-52
2023/10/04 04:30:31;;;;;;;7.33;2.10;;;;;;;10.83;100.00;101835.75;7373282;19;20535;-49
2023/10/04 04:33:03;;;;;;;11.50;2.67;;;;;;;10.83;100.00;101828.00;7396442;19;20411;-52
2023/10/04 04:35:47;;;;;;;9.83;2.63;;;;;;;10.84;100.00;101841.78;7373183;19;20981;-52
2023/10/04 04:38:19;;;;;;;8.03;2.50;;;;;;;10.82;100.00;101831.38;7396486;19;20432;-51
2023/10/04 04:40:55;;;;;;;12.93;2.83;;;;;;;10.84;100.00;101837.53;7372249;19;20595;-48
2023/10/04 04:43:36;;;;;;;8.70;2.33;;;;;;;10.87;100.00;101840.28;7396546;19;20411;-48
2023/10/04 04:46:12;;;;;;;7.00;2.00;;;;;;;10.91;100.00;101862.00;7374254;19;20491;-48
2023/10/04 04:48:42;;;;;;;9.37;2.60;;;;;;;10.92;100.00;101864.69;7395648;19;20407;-49
2023/10/04 04:51:15;;;;;;;18.17;2.90;;;;;;;10.88;100.00;101867.88;7366566;19;20526;-50
2023/10/04 04:53:46;;;;;;;9.47;2.93;;;;;;;10.89;100.00;101869.69;7396420;19;20395;-45
2023/10/04 04:56:19;;;;;;;7.20;1.70;;;;;;;10.85;100.00;101878.03;7372468;19;20448;-50
2023/10/04 04:58:51;;;;;;;23.07;4.03;;;;;;;10.88;100.00;101878.19;7384433;19;20792;-49
2023/10/04 05:01:21;;;;;;;13.60;2.30;;;;;;;10.88;100.00;101888.53;7396453;19;20534;-51
2023/10/04 05:03:52;;;;;;;5.67;2.07;;;;;;;10.89;100.00;101886.84;7372185;19;21083;-50
2023/10/04 05:06:24;;;;;;;9.43;2.40;;;;;;;10.93;100.00;101906.91;7394754;19;20415;-50
2023/10/04 05:08:54;;;;;;;15.60;2.90;;;;;;;10.92;100.00;101902.53;7374864;19;20402;-47
2023/10/04 05:11:27;;;;;;;10.60;2.80;;;;;;;10.90;100.00;101899.84;7394914;19;20440;-49
2023/10/04 05:13:57;;;;;;;7.60;2.20;;;;;;;10.99;100.00;101924.44;7372606;19;20403;-49
2023/10/04 05:16:27;;;;;;;8.63;2.33;;;;;;;10.93;100.00;101918.09;7394119;19;20433;-45
2023/10/04 05:18:57;;;;;;;7.87;2.47;;;;;;;10.90;100.00;101909.28;7372731;19;20466;-50
2023/10/04 05:21:26;;;;;;;13.70;4.20;;;;;;;11.00;100.00;101914.19;7395137;19;20447;-48
2023/10/04 05:23:57;;;;;;;8.03;3.13;;;;;;;11.02;100.00;101917.75;7371361;19;20444;-49
2023/10/04 05:26:29;;;;;;;7.97;1.90;;;;;;;11.05;100.00;101929.94;7393723;19;20450;-52
2023/10/04 05:29:00;;;;;;;19.83;2.67;;;;;;;10.99;100.00;101912.41;7371782;19;20479;-48
2023/10/04 05:31:29;;;;;;;12.40;2.70;;;;;;;10.95;100.00;101915.63;7394215;19;20792;-49
2023/10/04 05:33:59;;;;;;;18.70;3.27;;;;;;;10.93;100.00;101923.25;7373175;19;20427;-47
2023/10/04 05:36:29;;;;;;;8.37;2.20;;;;;;;10.93;100.00;101920.69;7393871;19;20436;-46
2023/10/04 05:39:01;;;;;;;5.40;1.80;;;;;;;10.84;100.00;101912.41;7373488;19;20439;-47
2023/10/04 05:41:35;;;;;;;14.57;2.60;;;;;;;10.88;100.00;101909.19;7393019;19;20435;-51
2023/10/04 05:44:05;;;;;;;8.70;2.60;;;;;;;10.85;100.00;101903.84;7372071;19;20390;-45
2023/10/04 05:46:34;;;;;;;11.17;2.90;;;;;;;10.87;100.00;101906.53;7392679;19;20420;-49
2023/10/04 05:49:09;;;;;;;12.33;2.70;;;;;;;10.92;100.00;101905.13;7370878;19;20408;-45
2023/10/04 05:51:39;;;;;;;21.40;2.57;;;;;;;10.97;100.00;101918.28;7391555;19;20438;-47
2023/10/04 05:54:10;;;;;;;12.03;2.73;;;;;;;10.95;100.00;101925.94;7372810;19;20751;-47
2023/10/04 05:56:43;;;;;;;7.93;2.10;;;;;;;10.97;100.00;101915.72;7390299;19;20459;-47
2023/10/04 05:59:14;;;;;;;6.63;2.40;;;;;;;11.01;100.00;101920.22;7372265;19;20391;-46
2023/10/04 06:01:44;;;;;;;7.37;2.10;;;;;;;10.98;100.00;101918.34;7390257;19;20399;-49
2023/10/04 06:04:13;;;;;;;15.47;2.37;;;;;;;11.01;100.00;101915.06;7369392;19;20444;-48
2023/10/04 06:06:48;;;;;;;9.33;2.63;;;;;;;11.02;100.00;101922.03;7390107;19;20471;-49
2023/10/04 06:09:28;;;;;;;17.37;3.00;;;;;;;11.10;100.00;101925.06;7366497;19;20391;-47
2023/10/04 06:12:01;;;;;;;13.10;3.73;;;;;;;11.11;100.00;101932.91;7391838;19;20403;-50
2023/10/04 06:14:31;;;;;;;28.10;9.70;;;;;;;11.10;100.00;101931.13;7368454;19;20439;-46
2023/10/04 06:17:01;;;;;;;13.53;3.67;;;;;;;11.07;100.00;101928.34;7393855;19;20741;-47
2023/10/04 06:19:30;;;;;;;12.13;4.23;;;;;;;11.16;100.00;101931.47;7371630;19;20439;-50
2023/10/04 06:22:02;;;;;;;26.30;9.20;;;;;;;11.16;100.00;101941.81;7392094;19;20421;-48
2023/10/04 06:24:32;;;;;;;28.37;9.80;;;;;;;11.21;100.00;101937.81;7370165;19;20424;-46
2023/10/04 06:27:04;;;;;;;15.90;4.37;;;;;;;11.19;100.00;101943.69;7391638;19;20480;-49
2023/10/04 06:29:34;;;;;;;13.60;5.20;;;;;;;11.05;100.00;101954.09;7368553;19;20427;-47
2023/10/04 06:32:04;;;;;;;12.93;5.50;;;;;;;10.99;100.00;101963.16;7392828;19;20932;-45
2023/10/04 06:34:33;;;;;;;9.23;3.10;;;;;;;10.88;100.00;101970.28;7369694;19;20426;-47
2023/10/04 06:37:03;;;;;;;12.63;2.83;;;;;;;10.89;100.00;101969.47;7391223;19;20407;-47
2023/10/04 06:39:33;;;;;;;13.40;4.30;;;;;;;10.92;100.00;101967.09;7370177;19;20423;-47
2023/10/04 06:42:06;;;;;;;23.90;7.60;;;;;;;10.93;100.00;101966.28;7388323;19;20415;-47
2023/10/04 06:44:36;;;;;;;9.37;2.20;;;;;;;10.90;100.00;101969.56;7369917;19;20436;-45
2023/10/04 06:47:06;;;;;;;47.57;20.47;;;;;;;10.97;100.00;101962.19;7392894;19;20834;-47
2023/10/04 06:49:35;;;;;;;12.40;4.23;;;;;;;10.91;100.00;101965.28;7368818;19;20475;-47
2023/10/04 06:52:05;;;;;;;18.43;4.77;;;;;;;10.90;100.00;101959.25;7392809;19;20479;-50
2023/10/04 06:54:35;;;;;;;20.30;4.50;;;;;;;10.86;100.00;101946.94;7368010;19;20414;-50
2023/10/04 06:57:08;;;;;;;51.23;16.47;;;;;;;10.91;100.00;101939.47;7387760;19;20415;-46
2023/10/04 06:59:38;;;;;;;29.40;5.07;;;;;;;10.94;100.00;101937.94;7370641;19;20799;-50
2023/10/04 07:02:09;;;;;;;14.40;4.07;;;;;;;10.93;100.00;101938.75;7393451;19;20436;-46
2023/10/04 07:04:39;;;;;;;19.87;4.50;;;;;;;10.95;100.00;101931.09;7366469;19;20411;-51
2023/10/04 07:07:08;;;;;;;11.60;4.10;;;;;;;10.97;100.00;101945.00;7393157;19;20396;-46
2023/10/04 07:09:38;;;;;;;24.37;7.90;;;;;;;11.03;100.00;101939.31;7368027;19;20514;-46
2023/10/04 07:12:11;;;;;;;18.13;6.30;;;;;;;11.03;100.00;101939.31;7390307;19;20416;-48
2023/10/04 07:14:40;;;;;;;9.07;2.67;;;;;;;11.04;100.00;101941.09;7366890;19;20437;-46
2023/10/04 07:17:10;;;;;;;24.73;9.50;;;;;;;11.07;100.00;101946.41;7390716;19;20947;-46
2023/10/04 07:19:40;;;;;;;29.67;7.33;;;;;;;11.08;100.00;101964.59;7368981;19;20478;-46
2023/10/04 07:22:10;;;;;;;11.23;3.50;;;;;;;11.13;100.00;101964.84;7395459;19;20429;-46
2023/10/04 07:24:39;;;;;;;21.73;7.80;;;;;;;11.20;100.00;101967.03;7372939;19;20434;-48
2023/10/04 07:27:11;;;;;;;12.80;4.10;;;;;;;11.29;100.00;101973.53;7397003;19;20533;-46
2023/10/04 07:29:41;;;;;;;18.23;5.13;;;;;;;11.35;100.00;101974.75;7373902;19;20686;-46
2023/10/04 07:32:11;;;;;;;26.63;6.00;;;;;;;11.39;100.00;101980.13;7396575;19;20483;-45
2023/10/04 07:34:41;;;;;;;25.20;6.33;;;;;;;11.47;100.00;101984.94;7372621;19;20414;-49
2023/10/04 07:37:11;;;;;;;13.27;5.20;;;;;;;11.48;100.00;101986.69;7399327;19;20414;-45
2023/10/04 07:39:40;;;;;;;24.40;6.37;;;;;;;11.41;100.00;102000.06;7372511;19;20487;-47
2023/10/04 07:42:12;;;;;;;8.70;2.70;;;;;;;11.43;100.00;102013.09;7391694;19;21144;-50
2023/10/04 07:44:42;;;;;;;7.30;2.50;;;;;;;11.40;100.00;102018.97;7369627;19;20510;-46
2023/10/04 07:47:12;;;;;;;11.60;3.80;;;;;;;11.47;100.00;102018.53;7392162;19;20424;-50
2023/10/04 07:49:41;;;;;;;15.10;3.20;;;;;;;11.53;100.00;102024.84;7372353;19;20470;-46
2023/10/04 07:52:11;;;;;;;11.70;3.43;;;;;;;11.56;100.00;102025.03;7396264;19;20479;-47
2023/10/04 07:54:41;;;;;;;29.50;6.17;;;;;;;11.63;100.00;102021.13;7370005;19;20423;-47
2023/10/04 07:57:13;;;;;;;17.40;4.83;;;;;;;11.65;100.00;102030.75;7396488;19;20402;-50
2023/10/04 07:59:43;;;;;;;11.33;2.63;;;;;;;11.65;100.00;102030.75;7371403;19;20473;-46
2023/10/04 08:02:13;;;;;;;12.30;3.30;;;;;;;11.67;100.00;102034.28;7394749;19;20852;-47
2023/10/04 08:04:44;;;;;;;9.27;2.63;;;;;;;11.75;100.00;102040.78;7371353;19;20494;-48
2023/10/04 08:07:18;;;;;;;12.40;3.70;;;;;;;11.80;100.00;102050.50;7394811;19;20403;-46
2023/10/04 08:09:48;;;;;;;9.33;2.30;;;;;;;11.83;100.00;102059.34;7370814;19;21627;-45
2023/10/04 08:12:20;;;;;;;15.37;4.17;;;;;;;11.96;100.00;102060.03;7396817;19;20411;-45
2023/10/04 08:14:51;;;;;;;10.80;3.77;;;;;;;12.02;100.00;102078.50;7370136;19;20434;-46
2023/10/04 08:17:23;;;;;;;15.70;5.00;;;;;;;12.20;100.00;102094.19;7396008;19;20490;-46
2023/10/04 08:19:53;;;;;;;11.60;3.20;;;;;;;12.36;100.00;102092.47;7373009;19;20558;-47
2023/10/04 08:22:23;;;;;;;15.20;3.03;;;;;;;12.47;100.00;102104.31;7395083;19;20499;-48
2023/10/04 08:24:53;;;;;;;10.10;2.93;;;;;;;12.62;100.00;102118.91;7372008;19;20431;-46
2023/10/04 08:27:26;;;;;;;8.87;1.50;;;;;;;12.63;100.00;102146.59;7395108;19;20943;-48
2023/10/04 08:29:56;;;;;;;14.37;3.13;;;;;;;12.72;100.00;102157.44;7372575;19;21002;-49
2023/10/04 08:32:27;;;;;;;10.27;3.30;;;;;;;12.86;100.00;102178.03;7392313;19;20964;-46
2023/10/04 08:34:57;;;;;;;10.27;2.57;;;;;;;12.88;100.00;102190.28;7372051;19;20427;-50
2023/10/04 08:37:27;;;;;;;16.60;2.70;;;;;;;12.91;100.00;102215.44;7397348;19;20755;-48
2023/10/04 08:39:57;;;;;;;12.23;2.70;;;;;;;13.00;100.00;102235.78;7370337;19;20928;-50
2023/10/04 08:42:29;;;;;;;16.77;2.97;;;;;;;13.06;100.00;102249.97;7393639;19;20499;-46
2023/10/04 08:44:59;;;;;;;13.83;3.40;;;;;;;13.04;100.00;102258.47;7372912;19;20996;-47
2023/10/04 08:47:29;;;;;;;10.57;2.70;;;;;;;13.12;100.00;102262.38;7397183;19;20427;-46
2023/10/04 08:49:59;;;;;;;11.37;3.03;;;;;;;13.17;100.00;102268.69;7372057;19;20522;-50
2023/10/04 08:52:37;;;;;;;11.80;3.57;;;;;;;13.24;100.00;102298.44;7394969;19;20411;-49
2023/10/04 08:55:10;;;;;;;13.20;3.40;;;;;;;13.30;100.00;102318.63;7370632;19;20498;-46
2023/10/04 08:57:45;;;;;;;22.13;2.70;;;;;;;13.26;100.00;102329.63;7392073;19;20411;-46
2023/10/04 09:00:18;;;;;;;15.27;2.50;;;;;;;13.29;100.00;102358.31;7371613;19;20783;-48
2023/10/04 09:03:00;;;;;;;11.17;2.00;;;;;;;13.33;100.00;102366.34;7396802;19;20399;-49
2023/10/04 09:05:30;;;;;;;8.60;2.37;;;;;;;13.41;100.00;102377.16;7373299;19;21095;-46
2023/10/04 09:08:01;;;;;;;12.50;2.00;;;;;;;13.48;100.00;102392.28;7394971;19;20408;-46
2023/10/04 09:10:32;;;;;;;8.60;2.80;;;;;;;13.63;100.00;102380.94;7369382;19;20447;-48
2023/10/04 09:13:09;;;;;;;12.27;3.03;;;;;;;13.72;100.00;102381.47;7394157;19;21253;-47
2023/10/04 09:15:39;;;;;;;11.80;2.43;;;;;;;13.69;100.00;102386.47;7369091;19;20423;-48
2023/10/04 09:18:10;;;;;;;13.80;2.63;;;;;;;13.83;100.00;102384.66;7395331;19;20395;-46
2023/10/04 09:20:40;;;;;;;7.70;2.00;;;;;;;13.86;100.00;102396.88;7370786;19;20481;-46
2023/10/04 09:23:20;;;;;;;18.23;3.60;;;;;;;13.89;100.00;102384.06;7394199;19;20928;-47
2023/10/04 09:25:54;;;;;;;12.80;2.30;;;;;;;13.93;100.00;102385.16;7372336;19;20446;-48
2023/10/04 09:28:39;;;;;;;10.07;2.13;;;;;;;13.91;100.00;102387.66;7397303;19;20422;-50
2023/10/04 09:31:13;;;;;;;9.20;2.20;;;;;;;14.06;100.00;102377.22;7371648;19;20468;-51
2023/10/04 09:33:43;;;;;;;10.60;2.60;;;;;;;14.20;100.00;102374.44;7393041;19;20411;-49
2023/10/04 09:36:13;;;;;;;19.67;2.63;;;;;;;14.26;100.00;102375.66;7373918;19;20472;-50
2023/10/04 09:38:44;;;;;;;13.80;2.10;;;;;;;14.26;100.00;102379.97;7393202;19;20403;-50
2023/10/04 09:41:14;;;;;;;6.00;1.53;;;;;;;14.15;100.00;102349.13;7372149;19;20479;-48
2023/10/04 09:43:47;;;;;;;10.93;2.23;;;;;;;14.31;100.00;102352.56;7391627;19;20941;-51
2023/10/04 09:46:18;;;;;;;10.53;2.03;;;;;;;14.43;100.00;102336.69;7373002;19;20449;-49
2023/10/04 09:48:48;;;;;;;14.10;2.83;;;;;;;14.51;100.00;102337.09;7391925;19;20939;-47
2023/10/04 09:51:18;;;;;;;6.57;1.50;;;;;;;14.46;100.00;102321.25;7392991;19;20471;-47
2023/10/04 09:53:48;;;;;;;10.13;2.33;;;;;;;14.37;100.00;102289.66;7392398;19;20412;-45
2023/10/04 09:56:18;;;;;;;14.97;2.80;;;;;;;14.66;100.00;102303.22;7393457;19;20415;-47
2023/10/04 09:58:51;;;;;;;15.20;2.07;;;;;;;14.50;100.00;102275.59;7392801;19;20951;-47
2023/10/04 10:01:23;;;;;;;11.43;2.17;;;;;;;14.58;100.00;102258.66;7371535;19;21082;-47
2023/10/04 10:03:59;;;;;;;10.30;2.03;;;;;;;14.57;100.00;102251.69;7371490;19;20403;-48
2023/10/04 10:06:30;;;;;;;12.00;2.47;;;;;;;14.69;100.00;102260.09;7394964;19;20403;-47
2023/10/04 10:09:01;;;;;;;9.83;1.77;;;;;;;14.68;100.00;102242.69;7371363;19;20483;-53
2023/10/04 10:11:33;;;;;;;8.37;1.90;;;;;;;14.66;100.00;102246.06;7393182;19;20466;-47
2023/10/04 10:14:09;;;;;;;11.17;2.50;;;;;;;14.73;100.00;102248.16;7368998;19;20416;-53
2023/10/04 10:16:41;;;;;;;7.83;2.10;;;;;;;14.92;100.00;102223.94;7390808;19;20495;-47
2023/10/04 10:19:12;;;;;;;15.00;2.67;;;;;;;14.95;100.00;102237.09;7370532;19;20812;-49
2023/10/04 10:22:06;;;;;;;14.27;3.03;;;;;;;14.94;100.00;102235.31;7391352;19;20455;-49
2023/10/04 10:24:36;;;;;;;9.27;2.40;;;;;;;15.08;100.00;102240.28;7368168;19;21398;-51
2023/10/04 10:27:07;;;;;;;18.80;4.90;;;;;;;15.17;100.00;102183.50;7392575;19;20391;-49
2023/10/04 10:29:39;;;;;;;12.40;2.10;;;;;;;15.16;100.00;102184.31;7366135;19;20479;-47
2023/10/04 10:32:16;;;;;;;8.30;2.50;;;;;;;14.98;100.00;102135.88;7390429;19;20447;-51
2023/10/04 10:34:46;;;;;;;10.00;2.80;;;;;;;15.00;100.00;102167.13;7365826;19;20436;-49
2023/10/04 10:37:22;;;;;;;16.70;2.67;;;;;;;14.93;100.00;102165.09;7390318;19;20609;-50
2023/10/04 10:39:53;;;;;;;10.10;2.37;;;;;;;15.13;100.00;102186.81;7366133;19;20449;-50
2023/10/04 10:42:23;;;;;;;10.10;2.30;;;;;;;15.22;100.00;102187.22;7387837;19;20919;-47
2023/10/04 10:45:30;;;;;;;11.63;2.50;;;;;;;15.49;100.00;102220.47;7366304;19;20427;-49
2023/10/04 10:48:01;;;;;;;9.43;2.30;;;;;;;15.70;100.00;102180.63;7388517;19;20428;-50
2023/10/04 10:50:37;;;;;;;11.83;2.47;;;;;;;15.65;100.00;102151.78;7364261;19;20789;-52
2023/10/04 10:53:10;;;;;;;12.77;2.60;;;;;;;15.42;100.00;102121.31;7388416;19;20939;-51
2023/10/04 10:55:41;;;;;;;9.97;2.60;;;;;;;15.27;100.00;102091.22;7368420;19;20967;-49
2023/10/04 10:58:12;;;;;;;9.80;2.40;;;;;;;15.19;100.00;102077.91;7397531;19;20939;-53
2023/10/04 11:00:46;;;;;;;11.93;2.63;;;;;;;15.12;100.00;102097.53;7370923;19;20447;-50
2023/10/04 11:03:15;;;;;;;11.07;3.43;;;;;;;15.15;100.00;102095.88;7386669;19;20985;-54
2023/10/04 11:05:45;;;;;;;10.23;2.90;;;;;;;15.03;100.00;102117.03;7366892;19;20839;-50
2023/10/04 11:08:15;;;;;;;19.53;7.40;;;;;;;14.89;100.00;102126.78;7391952;19;21026;-51
2023/10/04 11:10:45;;;;;;;13.87;5.07;;;;;;;14.84;100.00;102157.75;7369195;19;20522;-54
2023/10/04 11:13:18;;;;;;;20.53;6.70;;;;;;;14.88;100.00;102196.06;7392203;19;20499;-55
2023/10/04 11:15:51;;;;;;;24.00;7.23;;;;;;;15.05;100.00;102209.84;7368544;19;20446;-49
2023/10/04 11:18:28;;;;;;;14.10;2.80;;;;;;;15.27;100.00;102262.81;7390640;19;20798;-51
2023/10/04 11:21:04;;;;;;;22.77;6.23;;;;;;;15.34;100.00;102271.78;7368266;19;20811;-52
2023/10/04 11:23:36;;;;;;;18.67;5.07;;;;;;;15.36;100.00;102251.94;7390170;19;20417;-49
2023/10/04 11:26:08;;;;;;;17.50;5.30;;;;;;;15.35;100.00;102250.16;7369401;19;20450;-54
2023/10/04 11:28:38;;;;;;;12.73;4.70;;;;;;;15.32;100.00;102157.31;7390756;19;20420;-48
2023/10/04 11:31:10;;;;;;;14.90;3.70;;;;;;;15.45;100.00;102108.44;7366474;19;20507;-50